Time;durP1;ratioP1;P1;durP2;ratioP2;P2;SDS_P1;SDS_P2;PMS_P1;PMS_P2;Temp;Humidity;BMP_temperature;BMP_pressure;BME280_temperature;BME280_humidity;BME280_pressure;Samples;Min_cycle;Max_cycle;Signal;HPM_P1;HPM_P2
2022/10/03 00:01:49;;;;;;;;;;;21.20;46.70;;;;;;485756;245;1353;-53
2022/10/03 00:03:50;;;;;;;;;;;21.20;46.70;;;;;;485078;245;1288;-53
2022/10/03 00:05:51;;;;;;;;;;;21.20;46.80;;;;;;485779;245;1187;-53
2022/10/03 00:07:53;;;;;;;;;;;21.20;46.80;;;;;;485504;245;1248;-53
2022/10/03 00:09:55;;;;;;;;;;;21.20;46.80;;;;;;485320;245;1104;-54
2022/10/03 00:11:56;;;;;;;;;;;21.20;46.80;;;;;;485325;245;1245;-53
2022/10/03 00:13:57;;;;;;;;;;;21.20;46.70;;;;;;485596;245;1230;-53
2022/10/03 00:15:58;;;;;;;;;;;21.20;46.80;;;;;;485285;245;1246;-53
2022/10/03 00:18:00;;;;;;;;;;;21.20;46.80;;;;;;485495;245;1352;-53
2022/10/03 00:20:01;;;;;;;;;;;21.20;46.80;;;;;;485544;245;2156;-53
2022/10/03 00:22:03;;;;;;;;;;;21.20;46.80;;;;;;485293;245;1232;-54
2022/10/03 00:24:04;;;;;;;;;;;21.20;46.80;;;;;;485560;245;1394;-53
2022/10/03 00:26:25;;;;;;;;;;;21.20;46.80;;;;;;485280;245;1333;-53
2022/10/03 00:28:07;;;;;;;;;;;21.20;46.80;;;;;;484087;246;2350;-53
2022/10/03 00:30:09;;;;;;;;;;;21.20;46.90;;;;;;485338;245;1193;-53
2022/10/03 00:32:10;;;;;;;;;;;21.20;46.90;;;;;;485705;245;1221;-54
2022/10/03 00:34:11;;;;;;;;;;;21.20;46.90;;;;;;485362;245;1251;-53
2022/10/03 00:36:12;;;;;;;;;;;21.20;46.80;;;;;;485611;245;1222;-53
2022/10/03 00:38:13;;;;;;;;;;;21.20;46.90;;;;;;485436;245;1327;-53
2022/10/03 00:40:15;;;;;;;;;;;21.20;46.90;;;;;;485290;245;2196;-54
2022/10/03 00:42:16;;;;;;;;;;;21.20;46.90;;;;;;485290;245;1288;-54
2022/10/03 00:44:17;;;;;;;;;;;21.20;46.90;;;;;;485300;245;1142;-53
2022/10/03 00:46:19;;;;;;;;;;;21.20;46.80;;;;;;485642;245;1272;-54
2022/10/03 00:48:20;;;;;;;;;;;21.20;46.90;;;;;;485304;245;1367;-52
2022/10/03 00:50:22;;;;;;;;;;;21.20;46.90;;;;;;485664;245;1337;-52
2022/10/03 00:52:23;;;;;;;;;;;21.20;46.90;;;;;;485734;245;1272;-53
2022/10/03 00:54:24;;;;;;;;;;;21.20;46.90;;;;;;485571;245;1317;-53
2022/10/03 00:56:26;;;;;;;;;;;21.20;46.90;;;;;;485306;245;1261;-53
2022/10/03 00:58:27;;;;;;;;;;;21.20;46.80;;;;;;485295;245;1383;-53
2022/10/03 01:00:28;;;;;;;;;;;21.20;46.80;;;;;;485303;245;2148;-53
2022/10/03 01:02:30;;;;;;;;;;;21.20;46.90;;;;;;485578;245;1279;-53
2022/10/03 01:04:31;;;;;;;;;;;21.20;46.90;;;;;;485212;245;1264;-53
2022/10/03 01:06:32;;;;;;;;;;;21.20;46.90;;;;;;485345;245;1318;-53
2022/10/03 01:08:34;;;;;;;;;;;21.20;46.90;;;;;;485306;245;1418;-53
2022/10/03 01:10:35;;;;;;;;;;;21.20;46.90;;;;;;485471;245;1340;-53
2022/10/03 01:12:37;;;;;;;;;;;21.20;46.90;;;;;;485300;245;1287;-53
2022/10/03 01:14:38;;;;;;;;;;;21.20;47.00;;;;;;485530;246;1456;-53
2022/10/03 01:16:39;;;;;;;;;;;21.20;46.90;;;;;;485298;245;1337;-54
2022/10/03 01:18:40;;;;;;;;;;;21.10;46.80;;;;;;485737;242;1270;-53
2022/10/03 01:20:42;;;;;;;;;;;21.20;46.90;;;;;;485755;245;2147;-52
2022/10/03 01:22:43;;;;;;;;;;;21.20;46.90;;;;;;485601;245;1283;-54
2022/10/03 01:24:44;;;;;;;;;;;21.20;46.90;;;;;;485737;245;1289;-53
2022/10/03 01:26:46;;;;;;;;;;;21.20;47.00;;;;;;485743;245;1397;-53
2022/10/03 01:31:10;;;;;;;;;;;21.20;47.00;;;;;;469811;246;1545;-53
2022/10/03 01:33:12;;;;;;;;;;;21.20;46.90;;;;;;485040;245;1182;-53
2022/10/03 01:35:13;;;;;;;;;;;21.10;46.90;;;;;;485680;245;1340;-53
2022/10/03 01:37:15;;;;;;;;;;;21.20;47.00;;;;;;485124;245;1316;-53
2022/10/03 01:39:16;;;;;;;;;;;21.10;46.90;;;;;;485280;245;1342;-53
2022/10/03 01:41:18;;;;;;;;;;;21.20;47.00;;;;;;485330;245;2207;-53
2022/10/03 01:43:19;;;;;;;;;;;21.20;47.00;;;;;;485559;245;2097;-53
2022/10/03 01:45:21;;;;;;;;;;;21.20;47.00;;;;;;485246;245;1418;-53
2022/10/03 01:47:22;;;;;;;;;;;21.10;47.00;;;;;;485489;245;2211;-52
2022/10/03 01:49:24;;;;;;;;;;;21.10;47.00;;;;;;485448;245;1377;-53
2022/10/03 01:51:24;;;;;;;;;;;21.20;47.00;;;;;;485688;245;2347;-53
2022/10/03 01:53:25;;;;;;;;;;;21.20;47.00;;;;;;485271;245;1261;-53
2022/10/03 01:55:28;;;;;;;;;;;21.20;46.90;;;;;;485294;245;1324;-53
2022/10/03 01:57:28;;;;;;;;;;;21.20;47.00;;;;;;485428;245;1484;-53
2022/10/03 01:59:29;;;;;;;;;;;21.20;47.00;;;;;;485257;245;1262;-54
2022/10/03 02:01:31;;;;;;;;;;;21.20;47.00;;;;;;485322;245;2195;-52
2022/10/03 02:03:32;;;;;;;;;;;21.20;47.00;;;;;;485222;245;1308;-54
2022/10/03 02:05:34;;;;;;;;;;;21.20;47.00;;;;;;485481;245;1238;-53
2022/10/03 02:07:35;;;;;;;;;;;21.20;47.00;;;;;;485296;245;1358;-53
2022/10/03 02:09:36;;;;;;;;;;;21.20;47.00;;;;;;485743;245;1345;-52
2022/10/03 02:11:38;;;;;;;;;;;21.20;47.00;;;;;;485295;245;1177;-54
2022/10/03 02:13:39;;;;;;;;;;;21.20;47.00;;;;;;485728;245;1291;-54
2022/10/03 02:15:41;;;;;;;;;;;21.20;47.00;;;;;;485241;245;1207;-53
2022/10/03 02:17:44;;;;;;;;;;;21.10;47.00;;;;;;485352;245;1310;-54
2022/10/03 02:19:44;;;;;;;;;;;21.20;47.00;;;;;;485537;246;1539;-54
2022/10/03 02:21:46;;;;;;;;;;;21.20;47.00;;;;;;485457;245;2393;-53
2022/10/03 02:23:46;;;;;;;;;;;21.20;47.00;;;;;;485287;246;1843;-53
2022/10/03 02:25:48;;;;;;;;;;;21.20;47.00;;;;;;485307;245;1095;-53
2022/10/03 02:27:50;;;;;;;;;;;21.10;47.00;;;;;;485769;245;1187;-54
2022/10/03 02:29:50;;;;;;;;;;;21.10;47.00;;;;;;485672;246;1439;-53
2022/10/03 02:31:55;;;;;;;;;;;21.10;47.00;;;;;;485320;245;1247;-53
2022/10/03 02:33:53;;;;;;;;;;;21.20;47.00;;;;;;484877;246;2403;-54
2022/10/03 02:35:55;;;;;;;;;;;21.20;47.00;;;;;;485328;245;1191;-53
2022/10/03 02:37:56;;;;;;;;;;;21.20;47.00;;;;;;485727;245;1175;-53
2022/10/03 02:39:58;;;;;;;;;;;21.20;47.00;;;;;;485322;245;2199;-53
2022/10/03 02:42:01;;;;;;;;;;;21.20;47.10;;;;;;485487;245;1234;-53
2022/10/03 02:44:00;;;;;;;;;;;21.10;47.00;;;;;;485596;246;2251;-53
2022/10/03 02:46:02;;;;;;;;;;;21.20;47.00;;;;;;485592;245;1263;-53
2022/10/03 02:48:03;;;;;;;;;;;21.20;47.00;;;;;;485312;245;1220;-53
2022/10/03 02:50:04;;;;;;;;;;;21.20;47.00;;;;;;485320;245;1100;-53
2022/10/03 02:52:06;;;;;;;;;;;21.20;47.00;;;;;;485734;245;1217;-54
2022/10/03 02:54:07;;;;;;;;;;;21.20;47.00;;;;;;485375;245;1227;-54
2022/10/03 02:56:08;;;;;;;;;;;21.20;47.00;;;;;;485295;245;1244;-53
2022/10/03 02:58:10;;;;;;;;;;;21.20;47.10;;;;;;485318;245;1288;-53
2022/10/03 03:00:11;;;;;;;;;;;21.20;47.00;;;;;;485543;245;2171;-53
2022/10/03 03:02:12;;;;;;;;;;;21.10;47.00;;;;;;485238;245;1239;-53
2022/10/03 03:04:14;;;;;;;;;;;21.20;47.10;;;;;;485160;245;1252;-53
2022/10/03 03:06:16;;;;;;;;;;;21.20;47.10;;;;;;485587;245;1193;-53
2022/10/03 03:08:16;;;;;;;;;;;21.20;47.10;;;;;;485493;246;1661;-53
2022/10/03 03:10:18;;;;;;;;;;;21.20;47.10;;;;;;485309;245;1378;-53
2022/10/03 03:12:19;;;;;;;;;;;21.20;47.10;;;;;;485304;245;1247;-52
2022/10/03 03:14:20;;;;;;;;;;;21.10;47.00;;;;;;485751;245;1209;-53
2022/10/03 03:16:22;;;;;;;;;;;21.20;47.10;;;;;;485621;245;1335;-54
2022/10/03 03:18:23;;;;;;;;;;;21.20;47.10;;;;;;485489;245;1328;-53
2022/10/03 03:20:24;;;;;;;;;;;21.20;47.10;;;;;;485743;245;2151;-53
2022/10/03 03:22:26;;;;;;;;;;;21.20;47.10;;;;;;485717;245;1250;-53
2022/10/03 03:24:27;;;;;;;;;;;21.10;47.10;;;;;;485720;245;2322;-53
2022/10/03 03:26:29;;;;;;;;;;;21.20;47.00;;;;;;485291;245;1300;-53
2022/10/03 03:28:31;;;;;;;;;;;21.20;46.90;;;;;;485639;245;1275;-53
2022/10/03 03:30:31;;;;;;;;;;;21.20;46.80;;;;;;485268;245;1338;-53
2022/10/03 03:32:33;;;;;;;;;;;21.20;46.60;;;;;;485135;245;1253;-53
2022/10/03 03:34:34;;;;;;;;;;;21.20;46.50;;;;;;485672;245;1321;-54
2022/10/03 03:36:35;;;;;;;;;;;21.20;46.40;;;;;;485379;246;1333;-53
2022/10/03 03:38:37;;;;;;;;;;;21.30;46.30;;;;;;485260;245;1635;-53
2022/10/03 03:40:38;;;;;;;;;;;21.30;46.20;;;;;;485548;245;2191;-53
2022/10/03 03:42:39;;;;;;;;;;;21.30;46.20;;;;;;485601;245;1134;-53
2022/10/03 03:44:41;;;;;;;;;;;21.30;46.10;;;;;;485365;245;1084;-54
2022/10/03 03:46:42;;;;;;;;;;;21.30;46.00;;;;;;485658;245;1170;-54
2022/10/03 03:48:43;;;;;;;;;;;21.30;45.90;;;;;;485342;245;1148;-53
2022/10/03 03:50:45;;;;;;;;;;;21.30;45.90;;;;;;485777;245;1120;-53
2022/10/03 03:52:46;;;;;;;;;;;21.30;45.80;;;;;;485780;245;1276;-52
2022/10/03 03:54:47;;;;;;;;;;;21.30;45.70;;;;;;485787;245;1071;-53
2022/10/03 03:56:49;;;;;;;;;;;21.30;45.60;;;;;;485775;245;1080;-54
2022/10/03 03:58:50;;;;;;;;;;;21.30;45.60;;;;;;485556;245;1159;-54
2022/10/03 04:00:52;;;;;;;;;;;21.30;45.60;;;;;;485304;245;2195;-53
2022/10/03 04:02:53;;;;;;;;;;;21.30;45.40;;;;;;485246;245;1094;-53
2022/10/03 04:04:55;;;;;;;;;;;21.40;45.50;;;;;;485313;245;1071;-53
2022/10/03 04:06:56;;;;;;;;;;;21.40;45.40;;;;;;485684;245;1270;-54
2022/10/03 04:08:59;;;;;;;;;;;21.40;45.30;;;;;;485772;245;1159;-53
2022/10/03 04:10:59;;;;;;;;;;;21.30;45.30;;;;;;485680;246;2347;-53
2022/10/03 04:13:01;;;;;;;;;;;21.40;45.20;;;;;;485399;245;1220;-53
2022/10/03 04:15:02;;;;;;;;;;;21.40;45.10;;;;;;485281;245;1292;-54
2022/10/03 04:19:23;;;;;;;;;;;21.40;45.10;;;;;;485318;246;1316;-53
2022/10/03 04:21:24;;;;;;;;;;;21.40;45.10;;;;;;485248;245;2250;-54
2022/10/03 04:23:25;;;;;;;;;;;21.40;45.00;;;;;;485267;245;2513;-54
2022/10/03 04:25:26;;;;;;;;;;;21.40;44.90;;;;;;485473;245;1227;-53
2022/10/03 04:27:28;;;;;;;;;;;21.30;44.90;;;;;;485656;245;1188;-53
2022/10/03 04:29:29;;;;;;;;;;;21.40;45.00;;;;;;485761;245;1314;-53
2022/10/03 04:31:30;;;;;;;;;;;21.40;44.80;;;;;;485776;245;1140;-53
2022/10/03 04:33:32;;;;;;;;;;;21.40;44.80;;;;;;485150;245;1287;-53
2022/10/03 04:35:33;;;;;;;;;;;21.40;44.70;;;;;;485596;245;1246;-53
2022/10/03 04:37:34;;;;;;;;;;;21.40;44.70;;;;;;485331;245;1133;-53
2022/10/03 04:39:36;;;;;;;;;;;21.40;44.60;;;;;;485321;245;1045;-53
2022/10/03 04:41:37;;;;;;;;;;;21.40;44.60;;;;;;485294;245;2191;-53
2022/10/03 04:43:39;;;;;;;;;;;21.40;44.60;;;;;;485316;245;1315;-54
2022/10/03 04:45:40;;;;;;;;;;;21.30;44.50;;;;;;485297;245;1264;-52
2022/10/03 04:47:41;;;;;;;;;;;21.40;44.50;;;;;;485278;245;1237;-53
2022/10/03 04:49:42;;;;;;;;;;;21.40;44.50;;;;;;485749;245;1353;-53
2022/10/03 04:51:44;;;;;;;;;;;21.40;44.40;;;;;;485586;245;1378;-53
2022/10/03 04:53:45;;;;;;;;;;;21.30;44.30;;;;;;485762;245;1257;-54
2022/10/03 04:55:46;;;;;;;;;;;21.40;44.40;;;;;;485745;245;1203;-53
2022/10/03 04:57:48;;;;;;;;;;;21.40;44.20;;;;;;485309;245;1268;-53
2022/10/03 04:59:49;;;;;;;;;;;21.40;44.30;;;;;;485741;245;1307;-54
2022/10/03 05:01:50;;;;;;;;;;;21.40;44.20;;;;;;485714;245;2155;-53
2022/10/03 05:03:52;;;;;;;;;;;21.40;44.20;;;;;;485173;245;1197;-53
2022/10/03 05:05:53;;;;;;;;;;;21.40;44.20;;;;;;485766;245;1250;-53
2022/10/03 05:07:55;;;;;;;;;;;21.40;44.10;;;;;;485629;245;1245;-54
2022/10/03 05:09:56;;;;;;;;;;;21.40;44.10;;;;;;485783;245;1117;-54
2022/10/03 05:11:58;;;;;;;;;;;21.40;44.10;;;;;;485787;245;1309;-55
2022/10/03 05:13:59;;;;;;;;;;;21.30;44.00;;;;;;485281;246;1376;-53
2022/10/03 05:16:01;;;;;;;;;;;21.30;44.10;;;;;;485655;245;1220;-53
2022/10/03 05:18:02;;;;;;;;;;;21.40;44.10;;;;;;485639;245;1119;-53
2022/10/03 05:20:04;;;;;;;;;;;21.40;44.00;;;;;;485687;245;1051;-54
2022/10/03 05:22:05;;;;;;;;;;;21.30;44.00;;;;;;485572;245;2186;-54
2022/10/03 05:24:06;;;;;;;;;;;21.30;44.10;;;;;;485782;245;1081;-53
2022/10/03 05:26:08;;;;;;;;;;;21.30;44.20;;;;;;485735;245;1121;-54
2022/10/03 05:28:09;;;;;;;;;;;21.30;44.10;;;;;;485665;245;1293;-53
2022/10/03 05:30:10;;;;;;;;;;;21.40;44.10;;;;;;485316;245;1063;-54
2022/10/03 05:32:12;;;;;;;;;;;21.40;44.00;;;;;;485562;245;1109;-53
2022/10/03 05:34:13;;;;;;;;;;;21.40;43.90;;;;;;485223;245;1133;-53
2022/10/03 05:36:15;;;;;;;;;;;21.40;43.90;;;;;;485315;245;1129;-53
2022/10/03 05:38:16;;;;;;;;;;;21.40;43.90;;;;;;485328;245;1205;-53
2022/10/03 05:40:17;;;;;;;;;;;21.40;43.90;;;;;;485758;245;1224;-54
2022/10/03 05:42:19;;;;;;;;;;;21.40;43.80;;;;;;485297;245;2188;-53
2022/10/03 05:44:20;;;;;;;;;;;21.40;43.90;;;;;;485423;245;1204;-53
2022/10/03 05:46:21;;;;;;;;;;;21.40;43.80;;;;;;485739;245;1149;-53
2022/10/03 05:48:23;;;;;;;;;;;21.40;43.80;;;;;;485616;245;1205;-52
2022/10/03 05:50:26;;;;;;;;;;;21.30;43.70;;;;;;485358;245;1154;-54
2022/10/03 05:52:26;;;;;;;;;;;21.40;43.70;;;;;;485192;246;1556;-53
2022/10/03 05:54:27;;;;;;;;;;;21.40;43.70;;;;;;485407;245;1217;-54
2022/10/03 05:56:28;;;;;;;;;;;21.40;43.60;;;;;;485716;245;1290;-54
2022/10/03 05:58:30;;;;;;;;;;;21.40;43.50;;;;;;485756;245;1185;-53
2022/10/03 06:00:31;;;;;;;;;;;21.40;43.60;;;;;;485465;243;1213;-52
2022/10/03 06:02:32;;;;;;;;;;;21.40;43.50;;;;;;485366;245;2163;-53
2022/10/03 06:04:34;;;;;;;;;;;21.40;43.40;;;;;;485197;245;1261;-53
2022/10/03 06:06:35;;;;;;;;;;;21.40;43.50;;;;;;485644;245;1366;-53
2022/10/03 06:08:36;;;;;;;;;;;21.40;43.50;;;;;;485748;245;1190;-54
2022/10/03 06:10:38;;;;;;;;;;;21.40;43.50;;;;;;485744;245;1272;-53
2022/10/03 06:12:39;;;;;;;;;;;21.40;43.50;;;;;;485761;245;1133;-53
2022/10/03 06:14:40;;;;;;;;;;;21.40;43.40;;;;;;485739;245;1116;-53
2022/10/03 06:16:41;;;;;;;;;;;21.40;43.40;;;;;;485294;245;1205;-54
2022/10/03 06:18:43;;;;;;;;;;;21.40;43.30;;;;;;485643;245;1227;-53
2022/10/03 06:20:44;;;;;;;;;;;21.40;43.30;;;;;;485696;245;1199;-53
2022/10/03 06:22:45;;;;;;;;;;;21.40;43.30;;;;;;485655;245;2202;-54
2022/10/03 06:24:47;;;;;;;;;;;21.40;43.20;;;;;;485750;245;1346;-54
2022/10/03 06:26:48;;;;;;;;;;;21.40;43.20;;;;;;485716;245;1267;-53
2022/10/03 06:28:50;;;;;;;;;;;21.40;43.20;;;;;;485558;245;1238;-53
2022/10/03 06:30:51;;;;;;;;;;;21.40;43.20;;;;;;485723;245;1271;-53
2022/10/03 06:32:52;;;;;;;;;;;21.40;43.20;;;;;;485544;245;1262;-53
2022/10/03 06:34:54;;;;;;;;;;;21.40;43.20;;;;;;485247;245;1245;-54
2022/10/03 06:36:55;;;;;;;;;;;21.50;43.10;;;;;;485728;245;1265;-54
2022/10/03 06:38:56;;;;;;;;;;;21.50;43.10;;;;;;485696;245;1800;-53
2022/10/03 06:40:58;;;;;;;;;;;21.50;43.10;;;;;;485517;245;1241;-52
2022/10/03 06:42:59;;;;;;;;;;;21.40;43.20;;;;;;485429;242;2152;-53
2022/10/03 06:45:01;;;;;;;;;;;21.40;43.30;;;;;;485261;245;1261;-54
2022/10/03 06:47:02;;;;;;;;;;;21.40;43.40;;;;;;485494;245;1654;-53
2022/10/03 06:49:03;;;;;;;;;;;21.40;43.30;;;;;;485590;245;1214;-53
2022/10/03 06:51:05;;;;;;;;;;;21.40;43.20;;;;;;485545;245;1267;-52
2022/10/03 06:53:06;;;;;;;;;;;21.40;43.20;;;;;;485272;245;1274;-54
2022/10/03 06:55:09;;;;;;;;;;;21.40;43.30;;;;;;485703;245;1452;-53
2022/10/03 06:57:09;;;;;;;;;;;21.40;43.50;;;;;;485222;246;1972;-53
2022/10/03 06:59:10;;;;;;;;;;;21.30;43.70;;;;;;485658;245;1228;-54
2022/10/03 07:01:11;;;;;;;;;;;21.30;43.90;;;;;;485272;245;1265;-54
2022/10/03 07:03:13;;;;;;;;;;;21.30;44.00;;;;;;485465;245;2187;-53
2022/10/03 07:05:14;;;;;;;;;;;21.30;44.10;;;;;;485274;245;1247;-53
2022/10/03 07:07:15;;;;;;;;;;;21.30;44.20;;;;;;485746;245;1285;-53
2022/10/03 07:09:17;;;;;;;;;;;21.30;44.30;;;;;;485740;245;1319;-53
2022/10/03 07:11:19;;;;;;;;;;;21.30;44.30;;;;;;485730;245;1326;-53
2022/10/03 07:13:20;;;;;;;;;;;21.30;44.40;;;;;;485500;245;1993;-54
2022/10/03 07:15:21;;;;;;;;;;;21.30;44.50;;;;;;485424;245;1254;-53
2022/10/03 07:17:22;;;;;;;;;;;21.30;44.50;;;;;;485395;245;1207;-53
2022/10/03 07:19:25;;;;;;;;;;;21.30;44.60;;;;;;485538;245;1150;-53
2022/10/03 07:21:25;;;;;;;;;;;21.30;44.60;;;;;;485701;245;1388;-54
2022/10/03 07:23:26;;;;;;;;;;;21.30;44.70;;;;;;485749;245;2128;-54
2022/10/03 07:25:28;;;;;;;;;;;21.30;44.70;;;;;;485773;245;1121;-53
2022/10/03 07:27:29;;;;;;;;;;;21.30;44.70;;;;;;485317;245;1227;-53
2022/10/03 07:29:30;;;;;;;;;;;21.30;44.80;;;;;;485367;245;1237;-54
2022/10/03 07:31:32;;;;;;;;;;;21.30;44.80;;;;;;485716;245;1170;-52
2022/10/03 07:33:33;;;;;;;;;;;21.30;44.90;;;;;;485151;245;1186;-53
2022/10/03 07:40:14;;;;;;;;;;;21.30;44.90;;;;;;485293;246;1244;-53
2022/10/03 07:42:15;;;;;;;;;;;21.30;45.00;;;;;;485687;245;2147;-53
2022/10/03 07:44:17;;;;;;;;;;;21.30;45.00;;;;;;485720;245;1251;-53
2022/10/03 07:46:18;;;;;;;;;;;21.30;45.10;;;;;;485330;245;1231;-54
2022/10/03 07:48:19;;;;;;;;;;;21.30;45.10;;;;;;485579;245;1433;-52
2022/10/03 07:50:21;;;;;;;;;;;21.30;45.00;;;;;;485532;245;1216;-53
2022/10/03 07:52:22;;;;;;;;;;;21.30;45.10;;;;;;485326;245;1357;-53
2022/10/03 07:54:24;;;;;;;;;;;21.30;45.10;;;;;;485757;245;1311;-53
2022/10/03 07:56:25;;;;;;;;;;;21.30;45.20;;;;;;485327;245;1381;-53
2022/10/03 07:58:26;;;;;;;;;;;21.30;45.20;;;;;;485768;245;1292;-54
2022/10/03 08:00:28;;;;;;;;;;;21.20;45.20;;;;;;485761;245;1128;-53
2022/10/03 08:02:29;;;;;;;;;;;21.30;45.20;;;;;;485125;246;2167;-53
2022/10/03 08:04:30;;;;;;;;;;;21.30;45.30;;;;;;485430;245;1261;-53
2022/10/03 08:06:32;;;;;;;;;;;21.30;45.30;;;;;;485341;245;1214;-53
2022/10/03 08:08:33;;;;;;;;;;;21.30;45.40;;;;;;485769;245;1386;-54
2022/10/03 08:10:36;;;;;;;;;;;21.30;45.40;;;;;;485672;245;1309;-53
2022/10/03 08:12:37;;;;;;;;;;;21.30;45.40;;;;;;485219;245;1599;-53
2022/10/03 08:14:37;;;;;;;;;;;21.30;45.40;;;;;;485700;245;1429;-52
2022/10/03 08:16:39;;;;;;;;;;;21.30;45.30;;;;;;485757;245;1212;-53
2022/10/03 08:18:41;;;;;;;;;;;21.30;45.40;;;;;;485599;245;1275;-54
2022/10/03 08:20:41;;;;;;;;;;;21.30;45.40;;;;;;485497;245;2204;-54
2022/10/03 08:22:43;;;;;;;;;;;21.30;45.40;;;;;;485301;245;2160;-53
2022/10/03 08:24:44;;;;;;;;;;;21.30;45.40;;;;;;485748;245;1303;-53
2022/10/03 08:26:45;;;;;;;;;;;21.30;45.50;;;;;;485651;245;1319;-53
2022/10/03 08:28:47;;;;;;;;;;;21.30;45.50;;;;;;485567;245;1230;-53
2022/10/03 08:30:51;;;;;;;;;;;21.30;45.50;;;;;;485301;245;1207;-54
2022/10/03 08:32:49;;;;;;;;;;;21.30;45.60;;;;;;485343;246;1425;-53
2022/10/03 08:34:51;;;;;;;;;;;21.30;45.60;;;;;;485497;245;1250;-53
2022/10/03 08:36:52;;;;;;;;;;;21.30;45.60;;;;;;485346;245;1202;-53
2022/10/03 08:38:53;;;;;;;;;;;21.30;45.60;;;;;;485329;245;1119;-54
2022/10/03 08:40:55;;;;;;;;;;;21.30;45.70;;;;;;485314;245;1240;-54
2022/10/03 08:42:56;;;;;;;;;;;21.30;45.60;;;;;;485253;245;2588;-53
2022/10/03 08:44:57;;;;;;;;;;;21.30;45.60;;;;;;485337;245;1259;-53
2022/10/03 08:47:01;;;;;;;;;;;21.30;45.70;;;;;;485404;245;1291;-54
2022/10/03 08:49:01;;;;;;;;;;;21.30;45.70;;;;;;485204;246;1490;-53
2022/10/03 08:51:03;;;;;;;;;;;21.30;45.70;;;;;;485233;245;1194;-53
2022/10/03 08:53:03;;;;;;;;;;;21.30;45.70;;;;;;485162;246;1980;-53
2022/10/03 08:55:05;;;;;;;;;;;21.30;45.70;;;;;;485511;245;1239;-53
2022/10/03 08:57:07;;;;;;;;;;;21.30;45.80;;;;;;485756;245;1388;-53
2022/10/03 08:59:08;;;;;;;;;;;21.30;45.80;;;;;;485281;245;1432;-53
2022/10/03 09:01:09;;;;;;;;;;;21.30;45.90;;;;;;485325;245;1321;-53
2022/10/03 09:03:10;;;;;;;;;;;21.30;45.90;;;;;;485401;245;2211;-54
2022/10/03 09:05:12;;;;;;;;;;;21.30;45.90;;;;;;485764;245;1097;-53
2022/10/03 09:07:13;;;;;;;;;;;21.30;45.90;;;;;;485318;245;1211;-54
2022/10/03 09:09:14;;;;;;;;;;;21.30;46.00;;;;;;485478;245;1074;-53
2022/10/03 09:11:16;;;;;;;;;;;21.30;45.90;;;;;;485393;245;1068;-53
2022/10/03 09:13:17;;;;;;;;;;;21.30;46.00;;;;;;485615;245;1109;-53
2022/10/03 09:15:18;;;;;;;;;;;21.30;46.00;;;;;;485658;245;1271;-53
2022/10/03 09:17:20;;;;;;;;;;;21.30;46.00;;;;;;485542;245;1348;-54
2022/10/03 09:19:21;;;;;;;;;;;21.30;46.00;;;;;;485482;245;1222;-54
2022/10/03 09:21:23;;;;;;;;;;;21.30;46.00;;;;;;485591;245;1374;-54
2022/10/03 09:23:24;;;;;;;;;;;21.30;46.00;;;;;;485273;245;2199;-54
2022/10/03 09:25:25;;;;;;;;;;;21.30;46.00;;;;;;485662;245;1239;-53
2022/10/03 09:27:27;;;;;;;;;;;21.30;46.10;;;;;;485325;245;1238;-54
2022/10/03 09:29:28;;;;;;;;;;;21.30;46.10;;;;;;485746;245;1335;-51
2022/10/03 09:31:29;;;;;;;;;;;21.30;46.10;;;;;;485753;245;1200;-53
2022/10/03 09:33:30;;;;;;;;;;;21.30;46.10;;;;;;485418;245;1181;-54
2022/10/03 09:35:32;;;;;;;;;;;21.30;46.20;;;;;;485619;245;1234;-53
2022/10/03 09:37:33;;;;;;;;;;;21.30;46.20;;;;;;485372;245;1166;-54
2022/10/03 09:39:34;;;;;;;;;;;21.30;46.20;;;;;;485502;245;1121;-53
2022/10/03 09:41:36;;;;;;;;;;;21.30;46.10;;;;;;485493;245;1253;-54
2022/10/03 09:43:37;;;;;;;;;;;21.30;46.20;;;;;;485401;245;2187;-53
2022/10/03 09:45:39;;;;;;;;;;;21.30;46.20;;;;;;485359;245;1190;-53
2022/10/03 09:47:41;;;;;;;;;;;21.30;46.20;;;;;;485529;245;1147;-53
2022/10/03 09:49:41;;;;;;;;;;;21.30;46.20;;;;;;485704;246;1408;-53
2022/10/03 09:51:43;;;;;;;;;;;21.30;46.20;;;;;;485305;245;1243;-53
2022/10/03 09:53:44;;;;;;;;;;;21.30;46.20;;;;;;485710;245;1089;-53
2022/10/03 09:55:45;;;;;;;;;;;21.30;46.20;;;;;;485549;245;1209;-53
2022/10/03 09:57:46;;;;;;;;;;;21.30;46.20;;;;;;485565;245;1039;-53
2022/10/03 09:59:48;;;;;;;;;;;21.30;46.20;;;;;;485357;245;1161;-53
2022/10/03 10:01:51;;;;;;;;;;;21.30;46.20;;;;;;485372;245;1202;-54
2022/10/03 10:03:51;;;;;;;;;;;21.30;46.20;;;;;;485085;245;2191;-53
2022/10/03 10:05:53;;;;;;;;;;;21.30;46.20;;;;;;485325;245;1136;-53
2022/10/03 10:07:54;;;;;;;;;;;21.30;46.20;;;;;;485401;245;1106;-53
2022/10/03 10:09:55;;;;;;;;;;;21.30;46.20;;;;;;485571;245;1110;-53
2022/10/03 10:11:57;;;;;;;;;;;21.30;46.20;;;;;;485760;245;1125;-53
2022/10/03 10:13:58;;;;;;;;;;;21.30;46.20;;;;;;485684;245;1093;-53
2022/10/03 10:15:59;;;;;;;;;;;21.30;46.20;;;;;;485760;242;1214;-53
2022/10/03 10:18:01;;;;;;;;;;;21.30;46.20;;;;;;485782;245;1094;-52
2022/10/03 10:20:04;;;;;;;;;;;21.30;46.20;;;;;;485723;245;1103;-54
2022/10/03 10:22:04;;;;;;;;;;;21.30;46.30;;;;;;485236;245;1500;-54
2022/10/03 10:24:05;;;;;;;;;;;21.30;46.30;;;;;;485578;245;2204;-53
2022/10/03 10:26:08;;;;;;;;;;;21.30;46.30;;;;;;485435;245;1084;-53
2022/10/03 10:28:07;;;;;;;;;;;21.30;46.30;;;;;;485634;246;1408;-53
2022/10/03 10:30:09;;;;;;;;;;;21.30;46.40;;;;;;485309;245;1117;-54
2022/10/03 10:32:10;;;;;;;;;;;21.30;46.30;;;;;;485266;245;1345;-54
2022/10/03 10:34:11;;;;;;;;;;;21.30;46.30;;;;;;485588;245;1081;-53
2022/10/03 10:36:13;;;;;;;;;;;21.30;46.40;;;;;;485312;245;1686;-54
2022/10/03 10:38:14;;;;;;;;;;;21.30;46.30;;;;;;485391;245;1287;-53
2022/10/03 10:40:16;;;;;;;;;;;21.30;46.30;;;;;;485735;245;1246;-53
2022/10/03 10:42:17;;;;;;;;;;;21.30;46.40;;;;;;485605;245;1193;-54
2022/10/03 10:44:19;;;;;;;;;;;21.30;46.40;;;;;;485280;245;2152;-54
2022/10/03 10:46:20;;;;;;;;;;;21.30;46.40;;;;;;485576;245;1234;-52
2022/10/03 10:48:21;;;;;;;;;;;21.20;46.30;;;;;;485696;245;1262;-53
2022/10/03 10:50:23;;;;;;;;;;;21.30;46.40;;;;;;485634;245;1224;-53
2022/10/03 10:52:24;;;;;;;;;;;21.20;46.40;;;;;;485589;245;1413;-53
2022/10/03 10:54:25;;;;;;;;;;;21.30;46.50;;;;;;485337;245;1356;-53
2022/10/03 10:56:27;;;;;;;;;;;21.20;46.40;;;;;;485317;245;1268;-53
2022/10/03 10:58:28;;;;;;;;;;;21.30;46.50;;;;;;485256;245;1294;-52
2022/10/03 11:00:30;;;;;;;;;;;21.20;46.40;;;;;;485422;245;1193;-53
2022/10/03 11:02:30;;;;;;;;;;;21.30;46.50;;;;;;485136;245;2365;-53
2022/10/03 11:04:32;;;;;;;;;;;21.30;46.40;;;;;;485483;245;2211;-54
2022/10/03 11:06:33;;;;;;;;;;;21.30;46.40;;;;;;485300;245;1272;-54
2022/10/03 11:08:35;;;;;;;;;;;21.30;46.40;;;;;;485324;245;1503;-54
2022/10/03 11:10:36;;;;;;;;;;;21.30;46.50;;;;;;485327;245;1353;-54
2022/10/03 11:12:38;;;;;;;;;;;21.30;46.50;;;;;;485689;245;1364;-53
2022/10/03 11:14:39;;;;;;;;;;;21.30;46.50;;;;;;485291;245;1327;-53
2022/10/03 11:16:40;;;;;;;;;;;21.30;46.40;;;;;;485425;245;1360;-53
2022/10/03 11:18:41;;;;;;;;;;;21.30;46.40;;;;;;485716;245;1252;-54
2022/10/03 11:20:43;;;;;;;;;;;21.30;46.40;;;;;;485661;245;1620;-53
2022/10/03 11:22:44;;;;;;;;;;;21.30;46.40;;;;;;485440;245;1448;-53
2022/10/03 11:24:46;;;;;;;;;;;21.30;46.50;;;;;;485640;245;2143;-53
2022/10/03 11:26:47;;;;;;;;;;;21.30;46.50;;;;;;485726;245;1309;-53
2022/10/03 11:28:48;;;;;;;;;;;21.30;46.50;;;;;;485268;245;1352;-53
2022/10/03 11:30:49;;;;;;;;;;;21.30;46.50;;;;;;485247;245;1266;-53
2022/10/03 11:32:51;;;;;;;;;;;21.30;46.40;;;;;;485098;245;1168;-53
2022/10/03 11:34:52;;;;;;;;;;;21.30;46.50;;;;;;485340;245;1540;-53
2022/10/03 11:36:53;;;;;;;;;;;21.30;46.50;;;;;;485300;245;1360;-53
2022/10/03 11:38:55;;;;;;;;;;;21.30;46.50;;;;;;485323;245;1219;-53
2022/10/03 11:40:56;;;;;;;;;;;21.30;46.50;;;;;;485694;245;1301;-53
2022/10/03 11:42:57;;;;;;;;;;;21.30;46.50;;;;;;485719;245;1192;-53
2022/10/03 11:44:59;;;;;;;;;;;21.30;46.50;;;;;;485745;245;2171;-53
2022/10/03 11:47:00;;;;;;;;;;;21.30;46.50;;;;;;485341;245;1232;-54
2022/10/03 11:49:01;;;;;;;;;;;21.30;46.50;;;;;;485606;245;1267;-53
2022/10/03 11:51:04;;;;;;;;;;;21.30;46.50;;;;;;485275;245;1243;-53
2022/10/03 11:53:05;;;;;;;;;;;21.30;46.50;;;;;;485636;245;1417;-54
2022/10/03 11:55:05;;;;;;;;;;;21.30;46.50;;;;;;485377;245;1392;-53
2022/10/03 11:57:07;;;;;;;;;;;21.30;46.50;;;;;;485449;245;1273;-53
2022/10/03 11:59:08;;;;;;;;;;;21.30;46.60;;;;;;485723;245;1207;-53
2022/10/03 12:01:09;;;;;;;;;;;21.30;46.50;;;;;;485381;245;1156;-53
2022/10/03 12:03:12;;;;;;;;;;;21.30;46.50;;;;;;485303;245;1234;-53
2022/10/03 12:05:12;;;;;;;;;;;21.30;46.50;;;;;;485673;245;2358;-53
2022/10/03 12:09:33;;;;;;;;;;;21.30;46.60;;;;;;485378;246;1323;-54